Time;durP1;ratioP1;P1;durP2;ratioP2;P2;SDS_P1;SDS_P2;PMS_P1;PMS_P2;Temp;Humidity;BMP_temperature;BMP_pressure;BME280_temperature;BME280_humidity;BME280_pressure;Samples;Min_cycle;Max_cycle;Signal;HPM_P1;HPM_P2
2024/04/03 00:03:57;;;;;;;4.30;0.60;;;;;;;10.01;100.00;99277.29;186430;1231;43687;-75
2024/04/03 00:07:59;;;;;;;1.70;0.80;;;;;;;9.98;100.00;99276.48;186337;1232;45886;-74
2024/04/03 00:12:26;;;;;;;2.20;0.60;;;;;;;9.96;100.00;99276.56;186485;1231;45996;-75
2024/04/03 00:16:40;;;;;;;1.60;0.80;;;;;;;9.93;100.00;99273.09;186438;1231;57446;-74
2024/04/03 00:20:41;;;;;;;3.10;1.10;;;;;;;9.96;100.00;99266.63;186425;1231;44464;-76
2024/04/03 00:24:58;;;;;;;5.00;1.20;;;;;;;9.99;100.00;99267.37;186291;1231;44433;-76
2024/04/03 00:29:00;;;;;;;5.70;0.90;;;;;;;10.01;100.00;99267.42;186271;1231;43730;-76
2024/04/03 00:33:02;;;;;;;2.60;1.20;;;;;;;9.99;100.00;99267.06;186315;1231;45964;-74
2024/04/03 00:37:54;;;;;;;2.80;1.00;;;;;;;9.95;100.00;99266.55;186392;1232;57889;-74
2024/04/03 00:41:56;;;;;;;2.00;1.80;;;;;;;9.90;100.00;99270.58;186419;1231;46004;-75
2024/04/03 00:46:21;;;;;;;1.30;0.60;;;;;;;9.87;100.00;99265.17;186363;1232;45980;-74
2024/04/03 00:50:23;;;;;;;13.80;2.30;;;;;;;9.85;100.00;99268.56;186456;1231;44580;-75
2024/04/03 00:54:36;;;;;;;1.30;0.80;;;;;;;9.87;100.00;99269.95;186396;1232;45880;-75
2024/04/03 00:58:38;;;;;;;2.40;1.00;;;;;;;9.92;100.00;99262.97;186469;1232;57367;-74
2024/04/03 01:02:56;;;;;;;2.00;1.00;;;;;;;9.96;100.00;99255.34;186403;1232;44787;-75
2024/04/03 01:07:03;;;;;;;10.70;1.50;;;;;;;9.93;100.00;99255.40;186591;1232;44581;-75
2024/04/03 01:11:04;;;;;;;2.60;1.90;;;;;;;9.86;100.00;99255.39;186287;1231;44572;-74
2024/04/03 01:15:14;;;;;;;2.30;1.40;;;;;;;9.79;100.00;99253.05;186472;1231;44822;-75
2024/04/03 01:19:15;;;;;;;2.40;0.80;;;;;;;9.75;100.00;99244.77;186390;1232;57071;-75
2024/04/03 01:23:52;;;;;;;2.60;1.10;;;;;;;9.75;100.00;99243.98;186106;1231;43751;-74
2024/04/03 01:27:54;;;;;;;2.30;1.20;;;;;;;9.76;100.00;99243.54;186316;1232;43873;-75
2024/04/03 01:31:56;;;;;;;1.90;0.90;;;;;;;9.82;100.00;99238.15;186390;1231;43568;-75
2024/04/03 01:35:57;;;;;;;5.20;1.50;;;;;;;9.95;100.00;99235.35;186402;1231;43745;-75
2024/04/03 01:39:59;;;;;;;4.30;1.60;;;;;;;10.09;100.00;99233.52;186352;1231;59243;-74
2024/04/03 01:44:01;;;;;;;1.40;0.80;;;;;;;10.20;100.00;99230.48;186240;1231;44639;-75
2024/04/03 01:48:05;;;;;;;3.80;1.30;;;;;;;10.26;100.00;99235.95;186461;1231;43693;-74
2024/04/03 01:52:06;;;;;;;5.70;1.50;;;;;;;10.28;100.00;99229.08;186392;1231;43440;-75
2024/04/03 01:56:10;;;;;;;3.40;1.70;;;;;;;10.25;100.00;99230.88;186200;1231;43482;-75
2024/04/03 02:00:12;;;;;;;2.50;1.60;;;;;;;10.23;100.00;99227.05;186417;1231;57829;-75
2024/04/03 02:04:14;;;;;;;5.90;1.70;;;;;;;10.16;100.00;99229.98;186469;1231;43498;-75
2024/04/03 02:08:16;;;;;;;2.20;1.20;;;;;;;10.09;100.00;99224.12;186247;1231;43768;-74
2024/04/03 02:12:19;;;;;;;1.50;1.10;;;;;;;9.98;100.00;99225.89;186273;1234;43623;-75
2024/04/03 02:16:21;;;;;;;3.30;1.50;;;;;;;9.90;100.00;99227.35;186347;1231;44164;-74
2024/04/03 02:20:23;;;;;;;1.90;1.10;;;;;;;9.82;100.00;99232.47;186427;1231;56964;-75
2024/04/03 02:24:25;;;;;;;5.30;1.20;;;;;;;9.76;100.00;99229.77;186590;1231;43672;-74
2024/04/03 02:28:26;;;;;;;9.10;2.00;;;;;;;9.69;100.00;99226.69;186354;1231;45998;-75
2024/04/03 02:32:28;;;;;;;3.80;1.40;;;;;;;9.62;100.00;99222.91;186533;1231;44542;-75
2024/04/03 02:36:31;;;;;;;6.50;1.00;;;;;;;9.60;100.00;99222.52;186595;1231;43486;-74
2024/04/03 02:41:00;;;;;;;3.80;1.30;;;;;;;9.56;100.00;99219.22;186239;1231;58883;-75
2024/04/03 02:45:01;;;;;;;5.70;1.60;;;;;;;9.58;100.00;99218.65;186418;1231;44568;-74
2024/04/03 02:49:03;;;;;;;2.70;1.00;;;;;;;9.61;100.00;99215.95;186382;1234;45986;-75
2024/04/03 02:53:20;;;;;;;4.80;1.30;;;;;;;9.62;100.00;99215.09;186468;1231;45976;-75
2024/04/03 02:57:21;;;;;;;4.60;1.00;;;;;;;9.63;100.00;99204.43;186320;1231;44761;-75
2024/04/03 03:01:34;;;;;;;6.70;1.30;;;;;;;9.61;100.00;99202.31;185831;1231;57443;-73
2024/04/03 03:05:37;;;;;;;5.10;2.10;;;;;;;9.59;100.00;99202.61;185742;1231;46069;-74
2024/04/03 03:09:49;;;;;;;3.20;1.30;;;;;;;9.61;100.00;99201.09;185816;1231;43640;-74
2024/04/03 03:13:51;;;;;;;2.20;1.30;;;;;;;9.66;100.00;99202.20;185803;1231;45883;-74
2024/04/03 03:17:55;;;;;;;1.30;0.90;;;;;;;9.73;100.00;99193.19;185763;1231;46101;-67
2024/04/03 03:21:56;;;;;;;7.90;1.70;;;;;;;9.82;100.00;99192.52;185727;1231;58405;-66
2024/04/03 03:26:07;;;;;;;2.00;0.90;;;;;;;9.90;100.00;99193.48;185537;1231;43867;-66
2024/04/03 03:30:09;;;;;;;3.10;1.10;;;;;;;9.95;100.00;99203.80;185768;1231;45933;-66
2024/04/03 03:34:11;;;;;;;2.70;1.40;;;;;;;9.99;100.00;99201.67;185762;1231;44982;-66
2024/04/03 03:38:13;;;;;;;1.30;1.20;;;;;;;9.99;100.00;99207.67;185563;1232;43641;-69
2024/04/03 03:42:26;;;;;;;6.50;2.40;;;;;;;9.97;100.00;99211.27;185690;1231;58418;-66
2024/04/03 03:46:28;;;;;;;2.70;1.70;;;;;;;9.88;100.00;99212.48;185566;1231;45915;-66
2024/04/03 03:55:00;;;;;;;5.00;1.50;;;;;;;9.76;100.00;99205.44;185392;1231;46079;-67
2024/04/03 03:59:07;;;;;;;8.10;1.50;;;;;;;9.73;100.00;99214.93;185795;1231;44589;-66
2024/04/03 04:03:10;;;;;;;5.30;1.20;;;;;;;9.64;100.00;99214.95;185550;1235;58273;-66
2024/04/03 04:07:11;;;;;;;2.70;1.40;;;;;;;9.53;100.00;99221.23;185797;1231;46005;-65
2024/04/03 04:11:14;;;;;;;2.40;1.20;;;;;;;9.47;100.00;99224.52;185624;1231;46078;-67
2024/04/03 04:15:15;;;;;;;4.70;1.50;;;;;;;9.40;100.00;99227.21;185866;1231;46178;-67
2024/04/03 04:19:17;;;;;;;3.60;0.90;;;;;;;9.34;100.00;99224.60;185775;1231;45159;-68
2024/04/03 04:23:19;;;;;;;3.90;1.60;;;;;;;9.31;100.00;99228.13;185639;1231;58123;-67
2024/04/03 04:27:22;;;;;;;3.20;1.70;;;;;;;9.26;100.00;99226.27;185621;1231;45877;-65
2024/04/03 04:31:25;;;;;;;2.90;1.10;;;;;;;9.23;100.00;99223.88;185615;1231;46075;-65
2024/04/03 04:35:27;;;;;;;4.20;1.40;;;;;;;9.20;100.00;99221.14;185756;1231;45986;-66
2024/04/03 04:39:36;;;;;;;3.70;1.50;;;;;;;9.17;100.00;99225.98;185615;1231;43636;-66
2024/04/03 04:43:38;;;;;;;5.50;1.90;;;;;;;9.15;100.00;99224.27;185675;1231;58381;-67
2024/04/03 04:47:51;;;;;;;12.50;1.80;;;;;;;9.15;100.00;99222.63;185444;1231;44799;-68
2024/04/03 04:51:53;;;;;;;4.80;1.90;;;;;;;9.26;100.00;99220.37;185595;1231;46401;-69
2024/04/03 04:56:06;;;;;;;7.50;1.50;;;;;;;9.74;100.00;99222.30;185606;1231;45915;-65
2024/04/03 05:00:08;;;;;;;4.40;2.20;;;;;;;10.30;99.77;99223.84;185165;1232;92114;-83
2024/04/03 05:04:11;;;;;;;3.70;2.20;;;;;;;10.79;96.87;99232.94;182403;1231;59239;-83
2024/04/03 05:08:12;;;;;;;11.30;2.20;;;;;;;11.22;92.88;99233.08;182147;1233;46099;-83
2024/04/03 05:12:14;;;;;;;4.80;1.90;;;;;;;11.35;90.60;99230.39;182548;1235;46040;-83
2024/04/03 05:16:23;;;;;;;9.80;2.00;;;;;;;11.07;92.00;99229.61;182482;1232;46078;-83
2024/04/03 05:20:25;;;;;;;4.70;1.40;;;;;;;11.47;90.90;99227.59;182517;1235;46478;-83
2024/04/03 05:24:27;;;;;;;29.20;2.30;;;;;;;11.93;88.28;99228.53;182426;1235;59624;-84
2024/04/03 05:28:31;;;;;;;5.90;1.00;;;;;;;12.39;85.43;99220.88;182393;1236;45916;-83
2024/04/03 05:32:33;;;;;;;3.70;1.70;;;;;;;12.69;83.36;99220.02;182330;1232;46116;-83
2024/04/03 05:36:35;;;;;;;9.40;2.40;;;;;;;12.98;82.16;99223.55;183105;1231;46053;-84
2024/04/03 05:40:38;;;;;;;4.60;1.90;;;;;;;12.91;82.04;99220.06;182206;1236;46044;-83
2024/04/03 05:44:39;;;;;;;5.90;1.50;;;;;;;12.69;83.10;99214.33;182113;1232;59418;-83
2024/04/03 05:48:41;;;;;;;2.10;1.70;;;;;;;12.65;82.98;99208.41;182184;1231;46491;-84
2024/04/03 05:52:43;;;;;;;9.00;1.90;;;;;;;12.36;84.76;99212.91;182619;1235;45951;-83
2024/04/03 05:56:44;;;;;;;4.30;1.80;;;;;;;11.98;86.46;99214.56;182731;1233;46117;-83
2024/04/03 06:00:47;;;;;;;6.20;2.80;;;;;;;11.99;87.53;99218.20;182234;1235;46655;-83
2024/04/03 06:04:49;;;;;;;2.10;1.40;;;;;;;11.88;87.51;99225.64;183308;1232;60037;-82
2024/04/03 06:08:51;;;;;;;7.30;1.80;;;;;;;12.08;86.41;99224.10;182332;1231;46686;-83
2024/04/03 06:12:52;;;;;;;6.90;2.30;;;;;;;12.46;84.90;99221.98;181951;1235;206168;-83
2024/04/03 06:16:54;;;;;;;4.20;1.80;;;;;;;12.76;85.74;99216.48;182646;1235;46075;-83
2024/04/03 06:20:56;;;;;;;2.40;1.30;;;;;;;13.04;82.76;99216.15;182839;1232;46052;-83
2024/04/03 06:24:58;;;;;;;6.70;2.10;;;;;;;12.78;83.66;99211.98;182340;1231;59671;-83
2024/04/03 06:29:00;;;;;;;3.70;2.00;;;;;;;12.46;84.12;99216.13;182420;1231;45959;-83
2024/04/03 06:33:02;;;;;;;4.30;1.90;;;;;;;12.25;85.82;99209.36;182264;1231;45966;-83
2024/04/03 06:37:04;;;;;;;4.70;1.20;;;;;;;12.57;86.77;99213.38;182242;1232;46088;-83
2024/04/03 06:41:05;;;;;;;6.30;2.10;;;;;;;12.60;83.10;99196.66;182334;1231;45941;-83
2024/04/03 06:45:07;;;;;;;2.90;1.40;;;;;;;12.74;83.09;99198.31;182187;1231;57904;-82
2024/04/03 06:49:10;;;;;;;4.10;1.60;;;;;;;12.79;81.18;99197.28;181954;1235;46411;-82
2024/04/03 06:53:12;;;;;;;2.80;1.50;;;;;;;12.99;81.06;99201.00;182364;1237;46088;-83
2024/04/03 06:57:14;;;;;;;2.90;1.40;;;;;;;13.03;80.21;99210.38;182583;1232;46082;-83
2024/04/03 07:01:16;;;;;;;4.60;2.20;;;;;;;12.91;82.35;99224.44;182368;1237;45976;-83
2024/04/03 07:05:18;;;;;;;2.70;1.30;;;;;;;13.10;82.61;99222.42;182231;1233;59601;-82
2024/04/03 07:09:20;;;;;;;15.30;1.90;;;;;;;13.21;80.48;99214.99;182655;1231;46007;-83
2024/04/03 07:13:22;;;;;;;7.70;2.80;;;;;;;13.27;80.47;99212.52;182180;1232;46065;-82
2024/04/03 07:17:24;;;;;;;6.60;1.70;;;;;;;13.33;81.16;99218.15;182155;1231;46133;-82
2024/04/03 07:21:25;;;;;;;4.00;2.00;;;;;;;13.40;80.72;99218.84;182509;1232;46175;-83
2024/04/03 07:25:29;;;;;;;6.80;2.10;;;;;;;13.39;79.91;99221.38;183951;1231;59192;-83
2024/04/03 07:29:31;;;;;;;3.60;1.90;;;;;;;13.34;79.28;99224.95;182192;1235;46097;-83
2024/04/03 07:33:33;;;;;;;6.80;1.70;;;;;;;13.33;80.01;99225.62;183064;1231;46078;-82
2024/04/03 07:37:42;;;;;;;4.70;1.40;;;;;;;13.34;80.96;99234.96;186587;1233;43802;-83
2024/04/03 07:41:44;;;;;;;5.60;2.10;;;;;;;13.41;81.06;99236.54;182341;1231;45990;-82
2024/04/03 07:45:45;;;;;;;4.00;1.30;;;;;;;13.52;80.40;99239.97;181992;1231;59479;-83
2024/04/03 07:49:51;;;;;;;6.30;2.20;;;;;;;13.67;80.83;99244.70;182282;1232;46101;-83
2024/04/03 07:53:52;;;;;;;2.70;1.50;;;;;;;13.84;80.36;99246.96;182084;1231;46060;-84
2024/04/03 07:57:54;;;;;;;3.10;1.70;;;;;;;13.88;78.81;99248.58;182558;1235;45928;-83
2024/04/03 08:01:56;;;;;;;3.30;1.60;;;;;;;13.82;81.43;99245.73;182500;1231;45967;-83
2024/04/03 08:05:57;;;;;;;4.80;1.40;;;;;;;13.87;76.71;99252.33;182427;1231;59112;-82
2024/04/03 08:10:00;;;;;;;3.20;1.20;;;;;;;13.66;77.67;99259.02;182187;1231;45993;-83
2024/04/03 08:14:02;;;;;;;3.90;1.30;;;;;;;13.66;78.91;99256.60;182444;1232;45983;-82
2024/04/03 08:18:04;;;;;;;3.40;0.80;;;;;;;13.60;79.19;99270.45;182409;1231;46059;-83
2024/04/03 08:22:06;;;;;;;4.40;1.80;;;;;;;13.70;80.75;99270.27;182496;1231;46191;-83
2024/04/03 08:26:09;;;;;;;9.00;1.50;;;;;;;14.00;77.37;99267.98;182414;1231;57888;-83
2024/04/03 08:30:11;;;;;;;3.30;1.30;;;;;;;14.10;76.32;99268.25;182869;1231;46091;-81
2024/04/03 08:34:13;;;;;;;3.60;1.20;;;;;;;14.19;76.91;99272.46;182455;1231;45979;-81
2024/04/03 08:38:15;;;;;;;7.80;2.20;;;;;;;14.32;77.14;99280.04;181366;1231;46204;-81
2024/04/03 08:42:18;;;;;;;5.60;1.40;;;;;;;14.14;75.51;99288.48;182220;1235;46437;-81
2024/04/03 08:46:20;;;;;;;4.30;1.30;;;;;;;13.98;77.19;99289.09;183022;1235;57921;-83
2024/04/03 08:50:24;;;;;;;9.00;2.20;;;;;;;14.18;78.28;99287.18;183144;1231;45941;-83
2024/04/03 08:54:28;;;;;;;5.90;1.50;;;;;;;13.98;75.23;99290.11;182268;1231;46114;-83
2024/04/03 08:58:34;;;;;;;3.50;0.70;;;;;;;13.85;76.63;99305.33;182088;1231;45992;-83
2024/04/03 09:02:35;;;;;;;4.10;1.20;;;;;;;13.74;76.15;99302.02;182309;1231;45963;-83
2024/04/03 09:06:40;;;;;;;2.30;0.90;;;;;;;13.74;77.74;99305.95;182731;1232;59351;-83
2024/04/03 09:10:49;;;;;;;0.90;0.30;;;;;;;13.67;76.65;99297.05;182277;1235;46083;-83
2024/04/03 09:15:07;;;;;;;1.30;0.60;;;;;;;13.46;75.43;99301.18;182569;1235;46084;-83
2024/04/03 09:19:10;;;;;;;3.60;1.40;;;;;;;13.52;78.12;99311.47;182734;1231;46056;-82
2024/04/03 09:23:12;;;;;;;6.90;1.70;;;;;;;13.69;77.15;99312.05;182443;1231;44779;-83
2024/04/03 09:27:14;;;;;;;5.60;1.90;;;;;;;13.92;77.72;99323.09;182192;1231;59513;-83
2024/04/03 09:31:21;;;;;;;5.00;2.20;;;;;;;14.04;78.19;99325.75;182325;1231;46060;-83
2024/04/03 09:35:33;;;;;;;2.40;1.50;;;;;;;14.25;79.21;99326.16;182186;1235;46059;-84
2024/04/03 09:39:35;;;;;;;5.20;1.70;;;;;;;14.14;78.50;99333.78;182531;1235;46148;-83
2024/04/03 09:43:38;;;;;;;7.90;1.90;;;;;;;14.21;78.39;99333.92;182915;1235;46187;-83
2024/04/03 09:47:44;;;;;;;5.30;1.00;;;;;;;14.26;79.44;99330.83;182435;1231;58422;-83
2024/04/03 09:51:49;;;;;;;3.10;1.10;;;;;;;14.08;74.43;99337.08;183110;1232;46084;-83
2024/04/03 09:55:54;;;;;;;5.70;1.30;;;;;;;14.12;75.93;99336.30;182258;1231;45985;-83
2024/04/03 09:59:57;;;;;;;4.50;1.40;;;;;;;14.07;76.14;99341.83;182451;1233;45982;-83
2024/04/03 10:04:08;;;;;;;2.10;1.10;;;;;;;14.05;78.70;99347.11;182430;1231;46091;-82
2024/04/03 10:08:11;;;;;;;8.50;2.20;;;;;;;14.12;79.18;99351.64;182463;1232;58166;-83
2024/04/03 10:12:17;;;;;;;2.40;1.00;;;;;;;14.33;79.47;99350.96;182430;1231;46008;-83
2024/04/03 10:16:19;;;;;;;6.20;2.40;;;;;;;14.79;79.67;99359.48;182165;1233;45984;-84
2024/04/03 10:20:37;;;;;;;4.50;1.40;;;;;;;15.08;77.82;99351.06;182323;1235;46091;-83
2024/04/03 10:24:39;;;;;;;4.50;1.10;;;;;;;15.31;77.40;99354.17;182513;1235;46085;-83
2024/04/03 10:28:41;;;;;;;4.10;1.80;;;;;;;15.57;74.35;99351.27;182418;1231;57555;-83
2024/04/03 10:32:43;;;;;;;5.50;1.30;;;;;;;15.28;73.43;99352.66;182352;1232;46144;-83
2024/04/03 10:36:46;;;;;;;5.20;1.40;;;;;;;15.10;73.13;99355.99;182475;1231;45986;-83
2024/04/03 10:40:47;;;;;;;1.40;0.90;;;;;;;15.12;73.24;99354.91;182693;1231;46100;-83
2024/04/03 10:44:55;;;;;;;4.10;1.60;;;;;;;14.91;72.07;99361.77;182635;1231;46097;-82
2024/04/03 10:48:58;;;;;;;5.40;1.00;;;;;;;14.63;74.22;99365.99;182587;1232;59516;-83
2024/04/03 10:52:59;;;;;;;3.50;1.60;;;;;;;14.49;77.18;99372.04;182377;1231;46072;-84
2024/04/03 10:57:02;;;;;;;3.40;0.80;;;;;;;14.46;77.25;99371.11;182918;1232;46094;-83
2024/04/03 11:01:04;;;;;;;6.00;1.30;;;;;;;14.39;76.48;99374.45;182822;1231;45964;-83
2024/04/03 11:05:06;;;;;;;2.50;1.60;;;;;;;14.42;78.31;99378.28;182261;1232;46003;-83
2024/04/03 11:09:09;;;;;;;3.90;1.30;;;;;;;14.55;76.95;99369.66;182645;1231;59309;-83
2024/04/03 11:13:15;;;;;;;2.00;0.80;;;;;;;14.66;77.51;99362.19;182681;1232;46095;-83
2024/04/03 11:17:16;;;;;;;;;;;;;;;14.87;78.65;99370.27;182552;1231;46021;-82
2024/04/03 11:21:18;;;;;;;5.80;1.60;;;;;;;15.17;77.88;99368.53;182726;1231;45826;-83
2024/04/03 11:25:20;;;;;;;6.00;1.60;;;;;;;15.39;75.89;99367.17;182317;1231;46075;-82
2024/04/03 11:29:31;;;;;;;4.80;1.40;;;;;;;15.63;75.41;99365.79;182366;1231;59512;-83
2024/04/03 11:33:33;;;;;;;3.40;1.40;;;;;;;15.85;74.57;99365.36;182575;1231;46513;-82
2024/04/03 11:37:35;;;;;;;3.40;1.40;;;;;;;16.00;73.98;99365.19;182347;1231;45951;-83
2024/04/03 11:41:37;;;;;;;5.10;1.50;;;;;;;16.02;73.98;99365.55;182122;1232;46076;-83
2024/04/03 11:45:39;;;;;;;4.30;1.60;;;;;;;16.27;74.03;99367.22;182340;1231;46021;-83
2024/04/03 11:49:42;;;;;;;3.80;1.70;;;;;;;16.71;76.30;99373.73;182092;1231;58094;-83
2024/04/03 11:53:46;;;;;;;5.00;1.70;;;;;;;17.07;72.15;99364.23;182230;1232;45986;-84
2024/04/03 11:57:49;;;;;;;1.80;1.10;;;;;;;17.03;68.64;99376.05;182941;1231;45974;-82
2024/04/03 12:01:51;;;;;;;6.90;1.40;;;;;;;16.81;68.49;99379.16;182650;1235;46089;-83
2024/04/03 12:05:53;;;;;;;3.00;1.30;;;;;;;16.54;69.59;99387.42;182380;1231;46264;-83
2024/04/03 12:09:56;;;;;;;3.20;1.90;;;;;;;16.17;70.73;99394.99;182215;1232;58133;-82
2024/04/03 12:13:57;;;;;;;3.70;2.10;;;;;;;16.13;72.40;99397.98;182213;1231;46049;-83
2024/04/03 12:17:59;;;;;;;5.10;1.90;;;;;;;16.07;72.91;99401.00;182981;1231;46019;-83
2024/04/03 12:22:01;;;;;;;8.30;1.70;;;;;;;15.92;71.97;99401.71;182230;1235;46040;-83
2024/04/03 12:26:03;;;;;;;5.00;2.30;;;;;;;15.83;74.28;99403.68;182182;1231;45972;-83
2024/04/03 12:30:06;;;;;;;4.30;1.60;;;;;;;15.73;75.05;99401.39;181816;1231;59306;-83
2024/04/03 12:34:10;;;;;;;3.10;1.70;;;;;;;15.68;75.60;99402.05;182059;1231;46041;-83
2024/04/03 12:38:12;;;;;;;5.20;1.60;;;;;;;15.43;76.74;99401.26;182058;1235;46127;-83
2024/04/03 12:42:28;;;;;;;3.90;1.00;;;;;;;15.41;78.72;99403.90;182356;1231;46599;-83
2024/04/03 12:46:29;;;;;;;6.10;1.60;;;;;;;15.31;76.45;99405.73;182095;1231;46012;-83
2024/04/03 12:50:31;;;;;;;1.70;1.40;;;;;;;15.15;77.20;99407.39;182284;1235;58113;-83
2024/04/03 12:54:33;;;;;;;1.40;0.80;;;;;;;15.11;78.26;99408.95;182628;1235;45916;-84
2024/04/03 12:58:35;;;;;;;3.20;1.20;;;;;;;15.01;79.39;99409.14;182505;1231;46098;-83
2024/04/03 13:02:37;;;;;;;2.40;1.10;;;;;;;14.91;81.28;99408.34;182543;1235;45992;-84
2024/04/03 13:06:39;;;;;;;1.80;1.30;;;;;;;14.90;81.53;99412.55;182264;1231;46118;-83
2024/04/03 13:10:41;;;;;;;7.80;1.40;;;;;;;14.94;81.37;99411.68;182164;1231;57933;-83
2024/04/03 13:14:43;;;;;;;2.00;1.10;;;;;;;15.15;81.76;99410.61;182129;1231;46062;-83
2024/04/03 13:18:45;;;;;;;4.40;1.40;;;;;;;15.33;80.28;99409.78;183312;1231;45955;-84
2024/04/03 13:22:47;;;;;;;14.70;2.70;;;;;;;15.45;79.37;99408.91;185135;1232;46065;-84
2024/04/03 13:26:49;;;;;;;3.10;1.00;;;;;;;15.52;83.54;99414.77;182982;1231;46011;-84
2024/04/03 13:30:52;;;;;;;4.00;0.80;;;;;;;15.65;82.08;99419.55;182825;1231;57626;-84
2024/04/03 13:34:54;;;;;;;1.40;0.90;;;;;;;15.72;79.05;99425.50;182629;1231;46139;-84
2024/04/03 13:38:55;;;;;;;7.20;2.10;;;;;;;15.68;79.51;99418.25;182411;1235;46209;-84
2024/04/03 13:42:57;;;;;;;2.10;0.70;;;;;;;15.49;80.94;99428.81;183404;1231;46063;-84
2024/04/03 13:46:59;;;;;;;1.10;0.70;;;;;;;15.33;81.60;99434.83;182905;1231;46787;-84
2024/04/03 13:51:01;;;;;;;3.30;1.20;;;;;;;15.16;83.23;99439.59;183490;1232;59409;-84
2024/04/03 13:55:03;;;;;;;3.00;1.30;;;;;;;15.03;82.95;99440.50;182599;1231;46051;-83
2024/04/03 13:59:05;;;;;;;3.50;1.10;;;;;;;14.93;83.04;99443.97;183008;1231;44002;-84
2024/04/03 14:03:07;;;;;;;3.20;1.40;;;;;;;14.86;82.13;99449.05;183301;1231;46044;-83
2024/04/03 14:07:09;;;;;;;3.30;1.20;;;;;;;14.77;85.17;99452.06;182676;1231;46092;-83
2024/04/03 14:11:11;;;;;;;2.20;1.30;;;;;;;14.64;85.37;99451.67;183077;1235;59311;-83
2024/04/03 14:15:13;;;;;;;2.80;1.20;;;;;;;14.56;84.72;99453.74;183110;1231;46020;-81
2024/04/03 14:19:15;;;;;;;2.10;1.30;;;;;;;14.54;88.65;99460.26;182762;1231;46555;-83
2024/04/03 14:23:17;;;;;;;3.50;1.30;;;;;;;14.45;87.16;99460.58;182179;1235;45992;-83
2024/04/03 14:27:22;;;;;;;11.20;1.10;;;;;;;14.39;86.68;99458.30;182524;1235;45973;-83
2024/04/03 14:31:26;;;;;;;2.00;1.10;;;;;;;14.37;88.59;99462.15;182544;1235;59379;-84
2024/04/03 14:35:28;;;;;;;3.90;1.50;;;;;;;14.31;87.95;99469.73;182484;1231;46074;-84
2024/04/03 14:39:31;;;;;;;5.00;1.60;;;;;;;14.31;87.86;99474.75;182907;1231;46631;-81
2024/04/03 14:43:34;;;;;;;2.10;0.90;;;;;;;14.27;88.63;99477.17;183255;1231;45932;-83
2024/04/03 14:47:36;;;;;;;4.40;1.80;;;;;;;14.17;88.62;99476.05;182634;1231;46085;-84
2024/04/03 14:51:38;;;;;;;1.60;1.00;;;;;;;14.13;88.80;99472.12;182545;1231;58844;-83
2024/04/03 14:55:39;;;;;;;4.20;1.40;;;;;;;14.16;89.02;99476.77;182702;1231;45003;-84
2024/04/03 14:59:41;;;;;;;2.10;1.20;;;;;;;14.16;90.33;99480.09;182518;1235;46213;-83
2024/04/03 15:03:43;;;;;;;2.50;1.30;;;;;;;14.22;93.65;99481.80;182348;1231;46094;-84
2024/04/03 15:07:48;;;;;;;7.70;1.40;;;;;;;14.18;94.62;99479.36;182249;1235;46004;-84
2024/04/03 15:11:50;;;;;;;2.20;1.60;;;;;;;14.15;96.42;99480.94;182686;1231;58552;-82
2024/04/03 15:15:52;;;;;;;3.80;2.10;;;;;;;14.16;99.87;99482.61;182981;1231;46090;-85
2024/04/03 15:19:56;;;;;;;2.20;1.40;;;;;;;14.19;97.71;99486.21;183462;1235;46100;-88
2024/04/03 15:23:58;;;;;;;5.40;2.00;;;;;;;14.20;98.15;99488.23;183198;1231;45172;-87
2024/04/03 15:28:02;;;;;;;6.00;1.60;;;;;;;14.16;98.44;99492.07;182710;1235;46037;-87
2024/04/03 15:32:08;;;;;;;2.70;1.20;;;;;;;14.17;97.67;99496.24;182585;1231;59443;-88
2024/04/03 15:36:12;;;;;;;;;;;;;;;14.12;96.44;99496.25;183715;1231;45974;-87
2024/04/03 15:40:17;;;;;;;4.30;2.40;;;;;;;14.15;97.99;99501.09;183635;1231;45790;-87
2024/04/03 15:44:19;;;;;;;9.90;2.10;;;;;;;14.21;96.83;99503.33;183291;1231;46006;-86
2024/04/03 15:48:21;;;;;;;4.40;1.90;;;;;;;14.21;96.27;99502.79;182906;1231;46096;-86
2024/04/03 15:52:25;;;;;;;5.50;2.60;;;;;;;14.17;96.16;99506.56;182605;1231;58458;-86
2024/04/03 15:56:27;;;;;;;6.30;3.60;;;;;;;14.26;94.85;99509.20;182481;1232;46216;-86
2024/04/03 16:00:29;;;;;;;6.50;3.40;;;;;;;14.32;93.31;99511.17;182575;1231;46006;-84
2024/04/03 16:04:31;;;;;;;14.00;5.10;;;;;;;14.32;93.42;99515.45;182605;1235;46035;-87
2024/04/03 16:08:33;;;;;;;7.70;4.90;;;;;;;14.30;93.45;99513.51;182569;1231;45942;-86
2024/04/03 16:12:36;;;;;;;8.80;5.30;;;;;;;14.35;93.98;99516.25;183033;1235;58895;-88
2024/04/03 16:16:41;;;;;;;5.40;3.80;;;;;;;14.42;94.03;99523.30;183269;1231;46061;-86
2024/04/03 16:20:43;;;;;;;9.20;4.90;;;;;;;14.40;94.25;99522.39;182544;1236;46101;-87
2024/04/03 16:24:45;;;;;;;12.50;5.70;;;;;;;14.25;97.58;99526.77;182492;1235;46114;-87
2024/04/03 16:28:46;;;;;;;5.80;3.70;;;;;;;14.24;99.32;99526.50;182455;1232;46065;-86
2024/04/03 16:32:48;;;;;;;6.50;3.80;;;;;;;14.22;100.00;99532.61;183160;1231;59213;-88
2024/04/03 16:36:50;;;;;;;38.50;16.00;;;;;;;14.10;100.00;99532.95;183167;1231;46085;-87
2024/04/03 16:40:52;;;;;;;25.10;11.50;;;;;;;14.11;100.00;99539.63;183413;1231;46300;-86
2024/04/03 16:44:54;;;;;;;15.10;8.00;;;;;;;14.11;100.00;99534.61;182502;1231;46068;-88
2024/04/03 16:48:57;;;;;;;35.40;13.00;;;;;;;14.07;100.00;99541.38;182615;1232;46060;-87
2024/04/03 16:52:59;;;;;;;17.60;10.10;;;;;;;14.05;100.00;99546.75;182747;1231;58109;-88
2024/04/03 16:57:02;;;;;;;8.20;4.20;;;;;;;13.96;100.00;99554.67;182969;1235;44621;-88
2024/04/03 17:01:13;;;;;;;10.70;5.00;;;;;;;13.76;100.00;99565.54;182741;1236;46094;-86
2024/04/03 17:05:16;;;;;;;8.10;5.50;;;;;;;13.52;100.00;99571.19;183161;1231;46418;-87
2024/04/03 17:09:18;;;;;;;6.70;4.70;;;;;;;13.29;100.00;99580.16;182276;1236;46072;-86
2024/04/03 17:13:20;;;;;;;4.10;3.40;;;;;;;13.04;100.00;99583.99;182198;1231;59939;-84
2024/04/03 17:17:22;;;;;;;10.00;3.60;;;;;;;12.92;100.00;99591.98;182672;1231;46005;-88
2024/04/03 17:21:23;;;;;;;12.20;5.10;;;;;;;12.90;100.00;99597.00;183108;1231;46074;-88
2024/04/03 17:25:25;;;;;;;3.50;1.90;;;;;;;12.84;100.00;99598.34;183489;1231;46077;-87
2024/04/03 17:29:27;;;;;;;2.70;1.20;;;;;;;12.65;100.00;99597.73;183123;1231;46092;-88
2024/04/03 17:33:29;;;;;;;2.00;0.90;;;;;;;12.44;100.00;99595.39;182667;1235;57883;-87
2024/04/03 17:37:31;;;;;;;2.00;0.70;;;;;;;12.30;100.00;99597.85;182877;1231;46036;-87
2024/04/03 17:41:33;;;;;;;2.00;1.80;;;;;;;12.20;100.00;99602.66;183090;1235;45943;-81
2024/04/03 17:45:35;;;;;;;2.60;1.70;;;;;;;12.13;100.00;99603.44;182602;1231;46187;-87
2024/04/03 17:49:37;;;;;;;1.50;1.20;;;;;;;12.10;100.00;99606.51;182624;1232;44160;-85
2024/04/03 17:53:39;;;;;;;2.80;1.60;;;;;;;12.11;100.00;99613.45;183814;1232;59451;-87
2024/04/03 17:57:41;;;;;;;2.50;1.30;;;;;;;12.10;100.00;99615.95;184421;1232;45998;-87
2024/04/03 18:01:43;;;;;;;2.80;1.70;;;;;;;12.09;100.00;99619.60;182392;1231;46190;-86
2024/04/03 18:05:47;;;;;;;4.40;2.30;;;;;;;12.09;100.00;99621.05;182584;1232;46209;-86
2024/04/03 18:09:49;;;;;;;3.50;1.90;;;;;;;12.12;100.00;99620.55;182622;1231;47052;-85
2024/04/03 18:13:51;;;;;;;2.50;1.50;;;;;;;12.24;100.00;99622.34;182440;1235;232865;-86
2024/04/03 18:17:56;;;;;;;2.30;1.80;;;;;;;12.33;100.00;99622.67;182509;1235;46091;-87
2024/04/03 18:21:59;;;;;;;5.20;3.40;;;;;;;12.36;100.00;99625.87;182862;1231;44355;-88
2024/04/03 18:26:01;;;;;;;5.40;4.50;;;;;;;12.31;100.00;99636.55;182809;1231;46081;-86
2024/04/03 18:30:04;;;;;;;8.80;6.00;;;;;;;12.28;100.00;99640.06;182601;1231;45996;-87
2024/04/03 18:34:17;;;;;;;17.50;11.20;;;;;;;12.26;100.00;99644.29;182955;1231;58282;-86
2024/04/03 18:38:19;;;;;;;23.00;13.70;;;;;;;12.22;100.00;99650.61;182958;1236;45969;-85
2024/04/03 18:42:22;;;;;;;25.10;20.20;;;;;;;12.16;100.00;99653.98;182548;1233;45977;-84
2024/04/03 18:46:24;;;;;;;33.30;21.30;;;;;;;12.11;100.00;99650.67;183002;1232;46044;-85
2024/04/03 18:50:26;;;;;;;16.70;14.40;;;;;;;12.14;100.00;99653.30;182823;1232;45929;-86
2024/04/03 18:54:28;;;;;;;20.90;14.60;;;;;;;12.04;100.00;99653.73;182725;1234;59539;-88
2024/04/03 18:58:30;;;;;;;14.90;11.70;;;;;;;11.94;100.00;99654.20;182966;1231;46002;-87